Wetterstation Vordersexau
Wetterdaten: Juli 2011
Datum Temp. A. Feuchte A. Luftdruck Regen Wind Richtung Taupunkt Windchill Windben
01.07.2011 15,9 C 65 % 1019,8 hPa 0,0 l/m 1,6 km/h O-NO 8,6 C 15,8 C 0,9 km/h
02.07.2011 16,5 C 58 % 1015,5 hPa 0,0 l/m 1,7 km/h N-NO 6,9 C 16,3 C 1,0 km/h
03.07.2011 18,3 C 55 % 1013,0 hPa 0,0 l/m 1,9 km/h O-SO 7,6 C 18,1 C 1,1 km/h
04.07.2011 20,6 C 57 % 1012,3 hPa 0,0 l/m 0,8 km/h O-NO 10,3 C 20,6 C 0,4 km/h
05.07.2011 23,3 C 56 % 1011,6 hPa 0,0 l/m 1,8 km/h NO 12,6 C 23,3 C 1,0 km/h
06.07.2011 22,3 C 59 % 1009,6 hPa 0,0 l/m 6,0 km/h O-NO 13,0 C 22,0 C 3,4 km/h
07.07.2011 20,2 C 70 % 1009,5 hPa 5,7 l/m 0,5 km/h W 13,9 C 20,2 C 0,3 km/h
08.07.2011 19,9 C 66 % 1012,2 hPa 4,3 l/m 4,4 km/h W-NW 12,7 C 19,4 C 2,5 km/h
09.07.2011 22,0 C 64 % 1014,8 hPa 0,0 l/m 5,5 km/h SO 14,0 C 21,8 C 3,0 km/h
10.07.2011 20,0 C 75 % 1016,3 hPa 1,8 l/m 1,8 km/h N-NO 15,1 C 19,9 C 1,0 km/h
11.07.2011 22,6 C 65 % 1016,5 hPa 0,0 l/m 3,9 km/h NO 15,0 C 22,4 C 2,2 km/h
12.07.2011 23,8 C 68 % 1010,1 hPa 8,2 l/m 2,4 km/h SO 16,8 C 23,4 C 1,3 km/h
13.07.2011 19,4 C 80 % 1008,1 hPa 12,1 l/m 6,5 km/h S-SO 15,8 C 18,2 C 3,6 km/h
14.07.2011 16,9 C 68 % 1016,6 hPa 0,4 l/m 4,9 km/h W-SW 10,3 C 16,1 C 2,7 km/h
15.07.2011 17,2 C 64 % 1018,6 hPa 0,0 l/m 2,0 km/h SO 9,1 C 17,0 C 1,1 km/h
16.07.2011 20,0 C 58 % 1010,6 hPa 0,0 l/m 7,3 km/h S-SO 10,2 C 19,5 C 4,1 km/h
17.07.2011 16,8 C 73 % 1003,8 hPa 5,3 l/m 7,6 km/h S 11,7 C 15,3 C 4,2 km/h
18.07.2011 17,4 C 64 % 1005,7 hPa 0,0 l/m 17,7 km/h W-SW 10,1 C 14,0 C 9,8 km/h
19.07.2011 15,2 C 75 % 1003,7 hPa 1,8 l/m 4,2 km/h SO 10,6 C 14,3 C 2,3 km/h
20.07.2011 14,6 C 82 % 1008,4 hPa 1,4 l/m 10,3 km/h W-SW 11,5 C 12,0 C 5,7 km/h
21.07.2011 16,7 C 76 % 1008,5 hPa 1,1 l/m 2,7 km/h N-NO 12,3 C 16,4 C 1,5 km/h
22.07.2011 17,3 C 80 % 1009,2 hPa 8,5 l/m 3,5 km/h SO 13,6 C 17,0 C 1,9 km/h
23.07.2011 17,2 C 68 % 1010,0 hPa 5,3 l/m 4,5 km/h W 10,6 C 16,6 C 2,5 km/h
24.07.2011 14,0 C 74 % 1011,5 hPa 0,4 l/m 6,5 km/h W-SW 9,3 C 12,7 C 3,6 km/h
25.07.2011 18,7 C 61 % 1008,9 hPa 0,0 l/m 4,3 km/h W-SW 10,0 C 18,2 C 2,4 km/h
26.07.2011 16,5 C 75 % 1010,3 hPa 9,3 l/m 2,8 km/h SO 11,8 C 16,1 C 1,5 km/h
27.07.2011 19,4 C 72 % 1014,6 hPa 0,4 l/m 1,5 km/h W 13,7 C 19,3 C 0,8 km/h
28.07.2011 20,7 C 67 % 1016,2 hPa 0,0 l/m 1,7 km/h NO 13,7 C 20,7 C 0,9 km/h
29.07.2011 20,4 C 67 % 1016,2 hPa 0,0 l/m 1,0 km/h SO 13,6 C 20,4 C 0,5 km/h
30.07.2011 19,3 C 67 % 1015,3 hPa 0,0 l/m 2,5 km/h N-NO 12,4 C 19,1 C 1,4 km/h
31.07.2011 17,3 C 67 % 1014,5 hPa 0,0 l/m 3,3 km/h N-NO 10,6 C 17,0 C 1,8 km/h
Min-Datum 02.07.11 03.07.11 17.07.11 15 Tage 01.07.11 - 02.07.11 24.07.11 01.07.11
Min-Zeit 05:30 18:30 05:30 - 00:30 - 05:30 07:30 00:30
Minimum 6,6 C 22 % 1000,2 hPa - 0,0 km/h - 4,4 C 3,2 C 0,0 km/h
Max-Datum 12.07.11 01.07.11 01.07.11 13.07.11 18.07.11 - 12.07.11 12.07.11 18.07.11
Max-Zeit 16:30 03:30 10:30 21:30 14:30 - 16:30 16:30 14:30
Maximum 36,9 C 86 % 1020,6 hPa 12,1 l/m 44,1 km/h
W-SW
- 21,8 C 36,9 C 24,5 km/h
W-SW
Durchschnitt 18,7 C 67 % 1012,0 hPa #65,8 l/m 4,1 km/h SO 11,9 C 18,2 C 2,3 km/h

Durchschnitt Minimum Temp.11,2 C
Durchschnitt Maximum Temp.28,0 C
www.sexauwetter.de